Time;durP1;ratioP1;P1;durP2;ratioP2;P2;SDS_P1;SDS_P2;PMS_P1;PMS_P2;Temp;Humidity;BMP_temperature;BMP_pressure;BME280_temperature;BME280_humidity;BME280_pressure;Samples;Min_cycle;Max_cycle;Signal;HPM_P1;HPM_P2
2021/11/18 00:01:09;;;;;;;8.38;4.57;;;10.10;80.80;;;;;;5013960;28;20036;-79
2021/11/18 00:03:35;;;;;;;9.23;4.63;;;10.10;80.70;;;;;;5011511;28;20029;-78
2021/11/18 00:06:01;;;;;;;11.77;5.30;;;10.00;81.10;;;;;;5011114;28;20438;-77
2021/11/18 00:08:27;;;;;;;11.18;5.80;;;10.00;80.90;;;;;;5014349;28;20021;-77
2021/11/18 00:10:59;;;;;;;17.05;7.60;;;10.00;81.30;;;;;;5001892;28;20030;-76
2021/11/18 00:13:28;;;;;;;11.80;6.57;;;10.00;81.30;;;;;;5008428;28;20026;-78
2021/11/18 00:15:54;;;;;;;13.32;7.88;;;10.00;81.10;;;;;;5009719;28;20060;-77
2021/11/18 00:18:23;;;;;;;13.65;7.25;;;10.00;81.20;;;;;;5009489;28;20030;-78
2021/11/18 00:20:52;;;;;;;13.60;7.63;;;9.90;80.70;;;;;;5011808;28;20041;-78
2021/11/18 00:23:20;;;;;;;13.93;8.35;;;9.90;80.50;;;;;;5012502;28;20129;-77
2021/11/18 00:25:45;;;;;;;15.27;8.40;;;9.90;82.10;;;;;;4974174;28;20030;-77
2021/11/18 00:28:11;;;;;;;14.07;8.05;;;9.90;80.60;;;;;;5005108;28;20025;-77
2021/11/18 00:30:38;;;;;;;12.88;7.72;;;9.80;81.30;;;;;;5010282;28;20044;-78
2021/11/18 00:33:05;;;;;;;17.88;8.57;;;9.90;81.90;;;;;;5010362;28;20034;-78
2021/11/18 00:35:32;;;;;;;13.48;8.05;;;9.90;81.50;;;;;;5013456;28;20033;-77
2021/11/18 00:37:59;;;;;;;13.57;7.70;;;9.90;81.30;;;;;;5011139;28;20088;-78
2021/11/18 00:40:27;;;;;;;14.50;7.65;;;9.90;81.50;;;;;;5010302;28;20087;-79
2021/11/18 00:42:53;;;;;;;12.32;7.25;;;9.90;81.30;;;;;;5010528;28;20022;-77
2021/11/18 00:45:21;;;;;;;14.93;8.15;;;9.90;81.30;;;;;;5010369;28;20068;-79
2021/11/18 00:47:49;;;;;;;14.65;7.90;;;9.90;81.40;;;;;;5011604;28;20582;-78
2021/11/18 00:50:17;;;;;;;13.85;7.68;;;9.90;81.40;;;;;;5011682;28;20041;-78
2021/11/18 00:52:43;;;;;;;14.38;7.50;;;9.80;81.00;;;;;;5010522;28;20084;-79
2021/11/18 00:55:11;;;;;;;13.73;6.95;;;9.90;81.90;;;;;;5010045;28;20026;-79
2021/11/18 00:57:37;;;;;;;16.35;7.13;;;9.90;81.70;;;;;;5010322;28;20026;-78
2021/11/18 01:00:08;;;;;;;13.90;6.90;;;9.90;81.80;;;;;;5010144;28;20172;-79
2021/11/18 01:02:34;;;;;;;10.63;7.03;;;9.90;81.60;;;;;;5031082;28;20490;-79
2021/11/18 01:05:00;;;;;;;12.57;6.75;;;10.00;81.60;;;;;;5010405;28;20085;-78
2021/11/18 01:07:25;;;;;;;12.13;6.85;;;10.00;81.80;;;;;;4992969;28;20490;-78
2021/11/18 01:09:51;;;;;;;13.85;6.95;;;10.00;82.00;;;;;;5010067;28;20025;-77
2021/11/18 01:12:17;;;;;;;12.18;7.15;;;10.00;81.50;;;;;;5011895;28;20033;-78
2021/11/18 01:14:43;;;;;;;14.20;7.70;;;10.00;81.50;;;;;;5012265;28;20141;-80
2021/11/18 01:17:08;;;;;;;12.30;7.60;;;9.90;81.60;;;;;;5010742;28;20025;-76
2021/11/18 01:19:38;;;;;;;14.73;7.68;;;9.90;81.20;;;;;;5009445;28;20116;-77
2021/11/18 01:22:06;;;;;;;12.43;7.90;;;9.80;80.60;;;;;;5009467;28;20026;-77
2021/11/18 01:24:35;;;;;;;16.85;8.15;;;9.70;81.20;;;;;;5009863;28;20022;-77
2021/11/18 01:27:00;;;;;;;12.38;7.82;;;9.60;81.70;;;;;;5009662;28;20088;-77
2021/11/18 01:29:27;;;;;;;16.13;7.50;;;9.60;81.30;;;;;;5011098;28;20034;-76
2021/11/18 01:31:52;;;;;;;12.82;7.70;;;9.50;81.50;;;;;;5009493;28;20513;-76
2021/11/18 01:34:18;;;;;;;13.00;7.78;;;9.50;81.60;;;;;;5010143;28;20061;-76
2021/11/18 01:36:44;;;;;;;14.38;8.25;;;9.40;81.40;;;;;;5009174;28;20100;-78
2021/11/18 01:39:10;;;;;;;13.48;7.30;;;9.40;82.30;;;;;;4992107;28;20381;-77
2021/11/18 01:41:38;;;;;;;12.35;7.28;;;9.50;82.70;;;;;;5011553;28;20030;-77
2021/11/18 01:44:15;;;;;;;11.73;7.68;;;9.60;82.00;;;;;;5010397;28;20043;-78
2021/11/18 01:46:41;;;;;;;12.90;7.78;;;9.50;81.50;;;;;;4992571;28;20392;-77
2021/11/18 01:49:10;;;;;;;11.80;7.47;;;9.50;82.10;;;;;;5008923;28;20108;-77
2021/11/18 01:51:42;;;;;;;14.30;7.70;;;9.50;82.20;;;;;;5009129;28;20026;-77
2021/11/18 01:54:11;;;;;;;14.67;7.43;;;9.50;81.90;;;;;;5009239;28;20110;-77
2021/11/18 01:56:37;;;;;;;13.40;7.57;;;9.60;82.10;;;;;;5011242;28;20022;-78
2021/11/18 01:59:14;;;;;;;14.20;6.78;;;9.60;81.80;;;;;;5010150;28;20034;-78
2021/11/18 02:01:43;;;;;;;12.40;7.63;;;9.60;82.20;;;;;;5011802;28;20034;-77
2021/11/18 02:04:15;;;;;;;14.02;7.35;;;9.60;81.70;;;;;;5008861;28;20112;-76
2021/11/18 02:06:48;;;;;;;13.73;7.57;;;9.60;81.70;;;;;;5008853;28;20037;-77
2021/11/18 02:09:17;;;;;;;12.50;8.02;;;9.50;81.50;;;;;;5009049;28;20072;-77
2021/11/18 02:11:47;;;;;;;12.88;6.97;;;9.60;81.80;;;;;;5011169;28;20045;-76
2021/11/18 02:14:15;;;;;;;11.38;7.10;;;9.60;81.70;;;;;;5010447;28;20410;-76
2021/11/18 02:16:43;;;;;;;12.30;7.18;;;9.50;81.80;;;;;;5008673;28;20085;-77
2021/11/18 02:19:11;;;;;;;13.10;7.03;;;9.60;81.80;;;;;;5008092;28;20030;-78
2021/11/18 02:21:38;;;;;;;12.80;6.55;;;9.50;81.20;;;;;;5008616;28;20080;-77
2021/11/18 02:24:14;;;;;;;13.02;6.97;;;9.40;81.30;;;;;;5008509;28;20039;-77
2021/11/18 02:26:39;;;;;;;11.90;6.80;;;9.50;81.80;;;;;;5011182;28;20056;-76
2021/11/18 02:29:07;;;;;;;9.68;6.32;;;9.40;81.60;;;;;;5009970;28;20490;-76
2021/11/18 02:31:59;;;;;;;9.93;6.40;;;9.50;82.20;;;;;;5008043;28;20053;-78
2021/11/18 02:34:40;;;;;;;11.63;7.15;;;9.40;81.70;;;;;;5007867;28;20022;-77
2021/11/18 02:37:06;;;;;;;10.63;6.25;;;9.40;81.90;;;;;;5008203;28;20053;-77
2021/11/18 02:39:32;;;;;;;10.77;6.90;;;9.40;81.80;;;;;;5008589;28;20466;-77
2021/11/18 02:41:58;;;;;;;13.05;6.78;;;9.40;81.80;;;;;;4993252;28;20091;-77
2021/11/18 02:44:23;;;;;;;13.40;6.95;;;9.30;82.30;;;;;;5011671;28;20026;-77
2021/11/18 02:46:49;;;;;;;10.70;6.70;;;9.40;82.70;;;;;;5008347;28;20033;-77
2021/11/18 02:49:14;;;;;;;10.82;6.88;;;9.40;82.30;;;;;;4990921;28;20037;-77
2021/11/18 02:51:40;;;;;;;11.48;6.55;;;9.40;82.00;;;;;;4991108;28;20018;-77
2021/11/18 02:54:06;;;;;;;10.20;6.85;;;9.40;81.80;;;;;;5008062;28;20026;-77
2021/11/18 02:56:32;;;;;;;11.85;7.13;;;9.30;81.00;;;;;;5011452;28;20030;-76
2021/11/18 02:58:59;;;;;;;11.77;7.50;;;9.20;81.50;;;;;;4991241;28;20085;-75
2021/11/18 03:01:34;;;;;;;12.52;7.57;;;9.00;80.70;;;;;;5010887;28;20026;-77
2021/11/18 03:04:01;;;;;;;13.63;7.10;;;9.00;82.00;;;;;;5008156;28;20102;-76
2021/11/18 03:06:27;;;;;;;13.15;7.30;;;9.10;82.90;;;;;;5007833;28;20045;-76
2021/11/18 03:08:53;;;;;;;15.13;7.32;;;9.10;82.40;;;;;;5009593;28;20042;-77
2021/11/18 03:11:20;;;;;;;12.85;7.07;;;9.00;82.20;;;;;;5011109;28;20018;-76
2021/11/18 03:13:46;;;;;;;11.95;7.55;;;9.10;82.60;;;;;;5008014;28;20444;-76
2021/11/18 03:16:12;;;;;;;11.38;6.50;;;9.10;82.40;;;;;;5007627;28;20561;-76
2021/11/18 03:18:38;;;;;;;11.13;6.32;;;9.10;81.80;;;;;;5007732;28;20402;-77
2021/11/18 03:21:08;;;;;;;11.70;6.95;;;9.00;81.80;;;;;;5008414;28;20037;-77
2021/11/18 03:23:34;;;;;;;12.93;7.07;;;9.00;81.70;;;;;;5011104;28;20030;-77
2021/11/18 03:25:59;;;;;;;8.05;5.80;;;9.00;81.80;;;;;;5008723;28;20037;-76
2021/11/18 03:28:27;;;;;;;9.80;6.57;;;9.00;81.90;;;;;;5007821;28;20026;-77
2021/11/18 03:30:54;;;;;;;12.23;7.13;;;9.00;81.50;;;;;;5007746;28;20030;-78
2021/11/18 03:33:24;;;;;;;11.75;6.40;;;8.90;81.40;;;;;;5007776;28;20042;-78
2021/11/18 03:35:50;;;;;;;11.73;6.95;;;8.90;81.70;;;;;;4991654;28;20034;-77
2021/11/18 03:38:17;;;;;;;10.80;7.07;;;8.80;80.80;;;;;;5010151;28;20173;-77
2021/11/18 03:40:50;;;;;;;10.05;6.72;;;8.80;81.70;;;;;;4990298;28;20042;-77
2021/11/18 03:43:18;;;;;;;11.82;6.68;;;8.80;82.00;;;;;;5007580;28;20034;-77
2021/11/18 03:45:43;;;;;;;8.82;6.38;;;8.80;81.70;;;;;;5009031;28;20030;-77
2021/11/18 03:48:09;;;;;;;11.05;6.80;;;8.80;81.90;;;;;;5011322;28;20395;-77
2021/11/18 03:50:36;;;;;;;11.07;6.45;;;8.90;81.70;;;;;;5013938;28;20101;-77
2021/11/18 03:53:03;;;;;;;12.55;7.30;;;8.90;81.70;;;;;;5013969;28;20160;-77
2021/11/18 03:55:29;;;;;;;11.38;6.95;;;8.90;81.60;;;;;;4994001;28;20053;-77
2021/11/18 03:57:57;;;;;;;10.20;6.32;;;8.90;81.80;;;;;;5011266;28;20459;-77
2021/11/18 04:00:30;;;;;;;12.65;6.60;;;8.90;81.30;;;;;;5012928;28;20030;-77
2021/11/18 04:02:58;;;;;;;9.82;6.88;;;8.80;81.10;;;;;;5012231;28;20030;-78
2021/11/18 04:05:24;;;;;;;9.98;6.45;;;8.80;81.30;;;;;;5014117;28;20045;-79
2021/11/18 04:07:50;;;;;;;10.27;6.75;;;8.70;81.00;;;;;;5011067;28;20034;-79
2021/11/18 04:10:20;;;;;;;11.07;6.80;;;8.70;81.90;;;;;;5011279;28;20112;-79
2021/11/18 04:12:46;;;;;;;9.57;5.93;;;8.70;82.20;;;;;;5011123;28;20479;-79
2021/11/18 04:15:13;;;;;;;10.48;6.30;;;8.80;81.70;;;;;;4994019;28;20073;-78
2021/11/18 04:17:39;;;;;;;11.15;6.68;;;8.80;81.50;;;;;;5013249;28;20029;-79
2021/11/18 04:20:07;;;;;;;13.45;6.82;;;8.80;81.20;;;;;;5012249;28;20034;-79
2021/11/18 04:22:34;;;;;;;9.23;5.93;;;8.70;81.20;;;;;;5010581;28;20029;-80
2021/11/18 04:25:00;;;;;;;9.93;6.30;;;8.70;81.20;;;;;;5010883;28;20105;-78
2021/11/18 04:27:25;;;;;;;9.82;6.50;;;8.70;81.10;;;;;;5010915;28;20487;-77
2021/11/18 04:29:51;;;;;;;9.23;6.85;;;8.50;80.50;;;;;;5011688;28;20080;-79
2021/11/18 04:32:20;;;;;;;8.95;6.40;;;8.40;81.20;;;;;;5013253;28;20050;-79
2021/11/18 04:34:46;;;;;;;10.13;6.45;;;8.40;81.40;;;;;;5010681;28;20029;-80
2021/11/18 04:37:13;;;;;;;11.65;6.82;;;8.40;81.50;;;;;;5010346;28;20049;-81
2021/11/18 04:39:39;;;;;;;10.35;6.97;;;8.40;81.50;;;;;;5011929;28;20073;-80
2021/11/18 04:42:06;;;;;;;9.98;6.75;;;8.40;81.10;;;;;;5010437;28;20026;-80
2021/11/18 04:44:32;;;;;;;11.00;6.55;;;8.30;80.90;;;;;;5013706;28;20041;-80
2021/11/18 04:46:59;;;;;;;11.32;6.90;;;8.40;81.50;;;;;;5011119;28;20046;-81
2021/11/18 04:49:25;;;;;;;9.73;6.13;;;8.40;81.50;;;;;;5005532;28;20113;-80
2021/11/18 04:51:50;;;;;;;13.00;6.85;;;8.40;81.20;;;;;;5006252;28;20034;-80
2021/11/18 04:54:16;;;;;;;12.50;7.00;;;8.40;80.80;;;;;;5010256;28;20037;-80
2021/11/18 04:56:42;;;;;;;9.93;6.68;;;8.30;81.00;;;;;;4993974;28;20439;-79
2021/11/18 04:59:09;;;;;;;12.13;7.10;;;8.30;81.20;;;;;;5011713;28;20033;-78
2021/11/18 05:01:35;;;;;;;10.15;7.35;;;8.30;81.00;;;;;;5013308;28;20038;-79
2021/11/18 05:04:03;;;;;;;10.57;6.32;;;8.30;81.10;;;;;;5010473;28;20084;-79
2021/11/18 05:06:29;;;;;;;9.40;6.45;;;8.20;80.70;;;;;;4992907;28;20076;-79
2021/11/18 05:08:54;;;;;;;9.15;6.63;;;8.20;80.60;;;;;;4993603;28;20070;-78
2021/11/18 05:11:20;;;;;;;9.60;6.32;;;8.10;80.10;;;;;;5012789;28;20380;-78
2021/11/18 05:13:47;;;;;;;10.25;6.28;;;8.00;80.80;;;;;;5009576;28;20026;-78
2021/11/18 05:16:15;;;;;;;10.93;6.35;;;8.10;81.10;;;;;;5009912;28;20045;-77
2021/11/18 05:18:41;;;;;;;8.52;6.20;;;8.10;81.30;;;;;;5010033;28;20064;-78
2021/11/18 05:21:08;;;;;;;8.32;6.40;;;8.10;81.40;;;;;;5010236;28;20490;-79
2021/11/18 05:23:34;;;;;;;8.18;6.15;;;8.20;81.60;;;;;;5012761;28;20025;-79
2021/11/18 05:26:00;;;;;;;9.45;6.20;;;8.20;81.20;;;;;;5010365;28;20088;-78
2021/11/18 05:28:26;;;;;;;8.52;6.45;;;8.20;80.90;;;;;;5009902;28;20038;-79
2021/11/18 05:30:52;;;;;;;8.13;6.00;;;8.20;80.90;;;;;;5009759;28;20076;-79
2021/11/18 05:33:20;;;;;;;8.50;6.35;;;8.20;81.20;;;;;;5010026;28;20026;-79
2021/11/18 05:35:47;;;;;;;8.40;5.78;;;8.20;80.60;;;;;;5011368;28;20026;-79
2021/11/18 05:38:13;;;;;;;7.32;5.38;;;8.20;81.00;;;;;;5011558;28;20034;-80
2021/11/18 05:40:40;;;;;;;6.50;5.78;;;8.30;81.10;;;;;;4991462;28;20044;-80
2021/11/18 05:43:06;;;;;;;7.72;6.00;;;8.20;80.20;;;;;;5009469;28;20030;-79
2021/11/18 05:45:35;;;;;;;8.00;6.15;;;8.10;80.10;;;;;;5009258;28;20021;-79
2021/11/18 05:48:02;;;;;;;8.30;5.88;;;8.10;80.70;;;;;;4994487;28;20109;-79
2021/11/18 05:50:29;;;;;;;8.40;6.00;;;8.10;80.40;;;;;;5013128;28;20490;-79
2021/11/18 05:52:55;;;;;;;9.55;5.75;;;8.10;80.70;;;;;;5009479;28;20030;-79
2021/11/18 05:55:24;;;;;;;10.00;6.25;;;8.10;80.70;;;;;;5008888;28;20490;-79
2021/11/18 05:57:50;;;;;;;9.00;6.18;;;8.00;80.30;;;;;;5011282;28;20498;-78
2021/11/18 06:00:20;;;;;;;8.68;5.72;;;7.90;80.30;;;;;;5010326;28;20492;-79
2021/11/18 06:02:46;;;;;;;9.75;6.28;;;8.00;81.40;;;;;;5012820;28;20450;-78
2021/11/18 06:05:14;;;;;;;8.70;5.85;;;8.10;81.50;;;;;;5010161;28;20058;-79
2021/11/18 06:07:40;;;;;;;8.10;5.68;;;8.10;81.50;;;;;;5008705;28;20504;-78
2021/11/18 06:10:07;;;;;;;8.20;5.97;;;8.20;81.10;;;;;;5007008;28;20034;-79
2021/11/18 06:12:33;;;;;;;12.43;6.45;;;8.20;81.20;;;;;;5008632;28;20490;-80
2021/11/18 06:14:58;;;;;;;9.05;6.45;;;8.20;80.90;;;;;;5009125;28;20034;-77
2021/11/18 06:17:24;;;;;;;10.07;6.32;;;8.20;80.80;;;;;;5012314;28;20080;-79
2021/11/18 06:19:49;;;;;;;10.73;6.47;;;8.10;80.30;;;;;;5008576;28;20124;-79
2021/11/18 06:22:18;;;;;;;10.68;6.45;;;8.00;80.70;;;;;;5009851;28;20025;-78
2021/11/18 06:24:44;;;;;;;8.43;6.00;;;8.10;81.90;;;;;;5008556;28;20022;-80
2021/11/18 06:27:09;;;;;;;9.57;6.20;;;8.20;82.10;;;;;;5008490;28;20025;-78
2021/11/18 06:29:36;;;;;;;9.48;6.15;;;8.30;81.90;;;;;;5011909;28;20041;-79
2021/11/18 06:32:05;;;;;;;7.80;6.00;;;8.30;82.30;;;;;;4993225;28;20461;-79
2021/11/18 06:34:31;;;;;;;10.88;6.10;;;8.30;81.50;;;;;;5008519;28;20033;-80
2021/11/18 06:36:57;;;;;;;8.63;6.13;;;8.40;82.00;;;;;;5008737;28;20490;-80
2021/11/18 06:39:23;;;;;;;8.40;6.00;;;8.50;81.70;;;;;;4990359;28;20040;-80
2021/11/18 06:41:49;;;;;;;8.98;6.10;;;8.50;81.50;;;;;;5010476;28;20410;-77
2021/11/18 06:44:16;;;;;;;9.63;6.43;;;8.50;80.80;;;;;;5010560;28;20057;-78
2021/11/18 06:46:43;;;;;;;10.10;6.40;;;8.40;80.40;;;;;;5009382;28;20022;-79
2021/11/18 06:49:10;;;;;;;9.98;6.45;;;8.30;80.80;;;;;;5008150;28;20034;-80
2021/11/18 06:51:41;;;;;;;8.77;6.32;;;8.30;81.30;;;;;;5008486;28;20021;-80
2021/11/18 06:54:08;;;;;;;7.50;5.97;;;8.30;80.40;;;;;;5008111;28;20029;-79
2021/11/18 06:56:34;;;;;;;9.07;6.32;;;8.30;82.30;;;;;;5011269;28;20546;-80
2021/11/18 06:59:00;;;;;;;8.15;5.72;;;8.40;82.10;;;;;;5009202;28;20105;-79
2021/11/18 07:01:26;;;;;;;10.07;6.38;;;8.50;81.70;;;;;;5011233;28;20129;-79
2021/11/18 07:03:52;;;;;;;9.10;6.00;;;8.50;81.00;;;;;;5008244;28;20025;-79
2021/11/18 07:06:20;;;;;;;8.90;6.40;;;8.50;81.20;;;;;;5005787;28;20058;-80
2021/11/18 07:08:46;;;;;;;10.85;6.00;;;8.40;80.60;;;;;;5008673;28;20022;-79
2021/11/18 07:11:14;;;;;;;9.20;6.20;;;8.40;80.60;;;;;;4998632;28;20509;-82
2021/11/18 07:13:40;;;;;;;9.38;6.07;;;8.40;81.10;;;;;;5006528;28;20046;-84
2021/11/18 07:16:10;;;;;;;9.65;6.15;;;8.40;81.30;;;;;;5009814;28;20030;-81
2021/11/18 07:18:35;;;;;;;13.35;7.10;;;8.50;81.10;;;;;;4992153;28;20486;-79
2021/11/18 07:21:02;;;;;;;8.73;6.65;;;8.40;80.70;;;;;;5010670;28;20040;-79
2021/11/18 07:23:29;;;;;;;7.28;5.82;;;8.30;79.90;;;;;;5015443;28;20026;-79
2021/11/18 07:25:59;;;;;;;12.15;7.43;;;8.30;80.90;;;;;;5014408;28;20084;-80
2021/11/18 07:28:27;;;;;;;10.70;7.43;;;8.30;81.10;;;;;;5012234;28;20029;-79
2021/11/18 07:30:54;;;;;;;9.05;6.28;;;8.30;81.30;;;;;;5011837;28;20050;-80
2021/11/18 07:33:22;;;;;;;10.13;6.25;;;8.30;81.40;;;;;;5011957;28;20037;-80
2021/11/18 07:35:50;;;;;;;9.45;6.40;;;8.30;80.70;;;;;;4995773;28;20022;-80
2021/11/18 07:38:17;;;;;;;11.25;6.65;;;8.20;80.90;;;;;;4997423;28;20033;-80
2021/11/18 07:40:43;;;;;;;9.63;6.40;;;8.10;81.20;;;;;;5011336;28;20629;-79
2021/11/18 07:43:11;;;;;;;9.65;6.70;;;8.30;82.00;;;;;;4994110;28;20026;-79
2021/11/18 07:45:36;;;;;;;12.98;7.10;;;8.30;81.70;;;;;;5012871;28;20024;-79
2021/11/18 07:48:03;;;;;;;10.52;6.38;;;8.30;80.60;;;;;;5011456;28;20026;-78
2021/11/18 07:50:29;;;;;;;11.52;7.00;;;8.20;81.10;;;;;;5015171;28;20383;-79
2021/11/18 07:52:54;;;;;;;11.90;6.97;;;8.20;80.80;;;;;;5011420;28;20037;-78
2021/11/18 07:55:21;;;;;;;12.02;6.70;;;8.20;81.40;;;;;;4993851;28;20030;-80
2021/11/18 07:57:47;;;;;;;11.45;7.03;;;8.20;82.80;;;;;;5011258;28;20038;-79
2021/11/18 08:00:16;;;;;;;8.82;5.82;;;8.30;82.40;;;;;;5011887;28;20040;-79
2021/11/18 08:02:43;;;;;;;11.55;6.38;;;8.40;82.10;;;;;;4998436;28;20030;-79
2021/11/18 08:05:10;;;;;;;9.68;6.53;;;8.40;82.00;;;;;;5012204;28;20562;-79
2021/11/18 08:07:36;;;;;;;8.57;6.38;;;8.60;82.10;;;;;;5006972;28;20026;-79
2021/11/18 08:10:06;;;;;;;9.05;5.90;;;8.60;81.50;;;;;;4996074;28;20498;-78
2021/11/18 08:12:35;;;;;;;13.40;6.43;;;8.50;80.60;;;;;;5011975;28;20475;-79
2021/11/18 08:15:05;;;;;;;7.82;5.25;;;8.50;81.00;;;;;;4994260;28;20430;-77
2021/11/18 08:17:31;;;;;;;9.35;5.85;;;8.50;81.00;;;;;;4996125;28;20025;-79
2021/11/18 08:19:57;;;;;;;7.95;6.57;;;8.50;81.30;;;;;;5011444;28;20046;-79
2021/11/18 08:22:23;;;;;;;8.38;5.15;;;8.50;79.90;;;;;;5011686;28;20022;-78
2021/11/18 08:24:48;;;;;;;9.90;5.57;;;8.40;81.30;;;;;;5011124;28;20033;-78
2021/11/18 08:27:14;;;;;;;8.43;5.50;;;8.50;82.10;;;;;;5010638;28;20026;-71
2021/11/18 08:29:40;;;;;;;8.65;5.97;;;8.70;82.30;;;;;;5012987;28;20034;-71
2021/11/18 08:32:07;;;;;;;7.32;5.57;;;8.80;81.60;;;;;;4995010;28;20390;-70
2021/11/18 08:34:33;;;;;;;8.30;6.25;;;8.90;81.30;;;;;;5011989;28;20092;-70
2021/11/18 08:36:59;;;;;;;8.38;5.82;;;8.90;81.30;;;;;;4995410;28;20022;-70
2021/11/18 08:39:26;;;;;;;7.88;5.95;;;9.00;81.40;;;;;;5012402;28;20034;-70
2021/11/18 08:42:00;;;;;;;9.80;6.25;;;9.00;81.00;;;;;;5012534;28;20043;-70
2021/11/18 08:44:27;;;;;;;;;;;9.00;80.30;;;;;;5014402;28;20026;-71
2021/11/18 08:46:54;;;;;;;8.27;5.68;;;9.00;81.30;;;;;;5010459;28;19916;-72
2021/11/18 08:49:21;;;;;;;9.90;6.03;;;9.00;81.10;;;;;;5010052;28;20061;-70
2021/11/18 08:51:47;;;;;;;10.38;6.22;;;9.00;80.80;;;;;;5010341;28;20553;-71
2021/11/18 08:54:19;;;;;;;11.75;6.40;;;9.00;80.40;;;;;;5010589;28;20499;-72
2021/11/18 08:56:50;;;;;;;9.90;5.72;;;8.90;80.30;;;;;;5012406;28;20014;-73
2021/11/18 08:59:16;;;;;;;13.52;5.95;;;8.90;81.00;;;;;;5012550;28;20036;-70
2021/11/18 09:01:46;;;;;;;11.68;6.55;;;9.00;81.80;;;;;;5012977;28;20038;-70
2021/11/18 09:04:15;;;;;;;10.65;6.45;;;9.10;81.70;;;;;;5009997;28;20033;-70
2021/11/18 09:06:41;;;;;;;14.00;6.97;;;9.30;82.00;;;;;;4992922;28;20129;-70
2021/11/18 09:09:09;;;;;;;11.20;6.55;;;9.40;81.20;;;;;;5010325;28;20069;-70
2021/11/18 09:11:35;;;;;;;7.80;5.40;;;9.40;80.90;;;;;;5013235;28;20487;-70
2021/11/18 09:14:02;;;;;;;10.95;6.25;;;9.60;81.50;;;;;;5011138;28;20443;-69
2021/11/18 09:16:30;;;;;;;12.98;6.45;;;9.80;81.60;;;;;;5010000;28;20038;-69
2021/11/18 09:18:56;;;;;;;15.90;6.25;;;9.90;82.00;;;;;;5009605;28;20049;-69
2021/11/18 09:21:25;;;;;;;16.23;7.50;;;10.00;80.40;;;;;;5010167;28;20534;-69
2021/11/18 09:23:56;;;;;;;14.40;6.85;;;10.00;80.00;;;;;;5011398;28;20029;-69
2021/11/18 09:26:23;;;;;;;14.00;7.15;;;10.10;80.50;;;;;;5012955;28;20069;-69
2021/11/18 09:28:49;;;;;;;14.07;7.88;;;10.10;79.40;;;;;;5009771;28;20037;-69
2021/11/18 09:31:17;;;;;;;14.45;7.70;;;10.10;80.00;;;;;;5009780;28;20030;-69
2021/11/18 09:33:44;;;;;;;11.60;7.45;;;10.00;79.30;;;;;;5009454;28;20022;-69
2021/11/18 09:36:11;;;;;;;14.10;6.97;;;10.00;80.00;;;;;;5009764;28;20030;-69
2021/11/18 09:38:41;;;;;;;13.00;6.72;;;10.10;80.80;;;;;;5012148;28;20080;-69
2021/11/18 09:41:27;;;;;;;15.00;6.93;;;10.20;80.40;;;;;;5012702;28;20030;-69
2021/11/18 09:44:22;;;;;;;11.57;7.35;;;10.20;80.60;;;;;;5009275;28;20061;-69
2021/11/18 09:47:13;;;;;;;12.73;7.25;;;10.20;80.10;;;;;;4992202;28;21013;-69
2021/11/18 09:49:59;;;;;;;13.00;7.45;;;10.30;80.50;;;;;;5009529;28;20034;-69
2021/11/18 09:52:40;;;;;;;13.70;7.20;;;10.30;80.20;;;;;;5009513;28;20026;-69
2021/11/18 09:55:18;;;;;;;12.05;7.22;;;10.30;80.20;;;;;;5009369;28;20041;-70
2021/11/18 09:57:56;;;;;;;12.73;6.80;;;10.40;80.40;;;;;;5009453;28;20026;-70
2021/11/18 10:00:46;;;;;;;10.82;7.20;;;10.50;80.80;;;;;;5010784;28;20038;-70
2021/11/18 10:03:27;;;;;;;10.23;6.60;;;10.60;80.90;;;;;;4978672;28;20077;-70
2021/11/18 10:05:56;;;;;;;9.40;6.70;;;10.70;80.50;;;;;;5010210;28;20038;-69
2021/11/18 10:08:28;;;;;;;9.38;7.03;;;10.70;80.00;;;;;;5012089;28;20022;-70
2021/11/18 10:11:12;;;;;;;9.95;6.57;;;10.70;80.20;;;;;;5009120;28;20088;-70
2021/11/18 10:14:01;;;;;;;10.60;6.47;;;10.80;79.80;;;;;;4991855;28;20120;-70
2021/11/18 10:16:33;;;;;;;11.05;6.55;;;10.80;80.20;;;;;;5008419;28;20030;-69
2021/11/18 10:19:04;;;;;;;10.50;5.90;;;10.90;80.50;;;;;;4991655;28;20030;-69
2021/11/18 10:21:36;;;;;;;11.23;6.93;;;11.00;80.20;;;;;;5009090;28;20477;-69
2021/11/18 10:24:19;;;;;;;10.65;6.80;;;11.00;79.50;;;;;;4992387;28;20105;-69
2021/11/18 10:26:52;;;;;;;12.25;6.47;;;11.10;80.30;;;;;;5011614;28;20502;-69
2021/11/18 10:29:26;;;;;;;;;;;11.20;80.00;;;;;;5011928;28;20037;-69
2021/11/18 10:31:55;;;;;;;;;;;11.20;80.10;;;;;;5009077;28;19917;-69
2021/11/18 10:34:44;;;;;;;12.60;5.88;;;11.30;80.60;;;;;;5009053;28;19909;-69
2021/11/18 10:37:35;;;;;;;10.07;6.22;;;11.40;80.30;;;;;;5008773;28;20080;-69
2021/11/18 10:40:19;;;;;;;10.27;6.35;;;11.40;79.80;;;;;;5008500;28;20037;-70
2021/11/18 10:43:18;;;;;;;10.80;6.25;;;11.60;80.10;;;;;;5008653;28;20030;-70
2021/11/18 10:45:51;;;;;;;12.13;6.53;;;11.70;79.90;;;;;;5004125;28;20506;-70
2021/11/18 10:48:24;;;;;;;11.38;6.70;;;11.90;79.80;;;;;;5008661;28;20033;-70
2021/11/18 10:50:56;;;;;;;11.70;6.90;;;12.00;79.30;;;;;;5010351;28;20037;-71
2021/11/18 10:53:28;;;;;;;11.60;7.35;;;12.00;79.00;;;;;;5011491;28;20026;-70
2021/11/18 10:55:59;;;;;;;9.30;6.75;;;12.10;79.00;;;;;;5009304;28;20092;-70
2021/11/18 10:58:25;;;;;;;12.98;7.30;;;12.20;79.10;;;;;;5008351;28;20101;-70
2021/11/18 11:01:02;;;;;;;12.80;6.88;;;12.30;78.60;;;;;;5011265;28;20038;-70
2021/11/18 11:03:34;;;;;;;14.27;7.50;;;12.40;78.50;;;;;;5008757;28;20026;-69
2021/11/18 11:06:17;;;;;;;11.70;7.05;;;12.50;78.30;;;;;;4975614;28;20430;-70
2021/11/18 11:09:04;;;;;;;14.70;7.32;;;12.60;78.40;;;;;;5009014;28;20300;-70
2021/11/18 11:12:00;;;;;;;16.08;7.55;;;12.70;77.00;;;;;;4994192;28;20506;-73
2021/11/18 11:14:29;;;;;;;14.40;6.95;;;12.60;76.80;;;;;;5011614;28;20029;-73
2021/11/18 11:17:03;;;;;;;11.38;7.20;;;12.60;77.00;;;;;;5008525;28;20037;-73
2021/11/18 11:19:50;;;;;;;12.02;6.75;;;12.70;77.70;;;;;;5006018;28;20030;-75
2021/11/18 11:22:35;;;;;;;9.77;5.68;;;12.70;77.60;;;;;;5005688;28;20123;-73
2021/11/18 11:25:07;;;;;;;11.55;6.03;;;12.80;77.60;;;;;;5007826;28;20026;-72
2021/11/18 11:28:10;;;;;;;15.68;6.40;;;12.90;77.70;;;;;;5008096;28;20491;-72
2021/11/18 11:31:06;;;;;;;14.13;6.28;;;13.00;77.60;;;;;;5016927;28;20483;-72
2021/11/18 11:33:35;;;;;;;12.88;6.35;;;13.20;77.90;;;;;;5008127;28;20080;-72
2021/11/18 11:36:08;;;;;;;15.25;7.15;;;13.40;76.70;;;;;;5013004;28;20022;-74
2021/11/18 11:38:46;;;;;;;12.32;6.30;;;13.50;76.10;;;;;;5021770;28;20393;-74
2021/11/18 11:41:42;;;;;;;12.95;7.15;;;13.60;76.20;;;;;;5018130;28;20045;-74
2021/11/18 11:44:31;;;;;;;11.75;6.57;;;13.70;76.20;;;;;;5009918;28;20025;-76
2021/11/18 11:47:25;;;;;;;10.02;5.53;;;13.70;75.90;;;;;;5000213;28;20045;-73
2021/11/18 11:49:50;;;;;;;11.05;4.20;;;13.80;75.00;;;;;;5015160;28;20044;-74
2021/11/18 11:52:51;;;;;;;8.68;3.70;;;13.80;74.50;;;;;;5013382;28;20387;-74
2021/11/18 11:55:23;;;;;;;9.60;4.00;;;13.80;74.20;;;;;;5007269;28;20121;-75
2021/11/18 11:57:51;;;;;;;11.05;3.88;;;13.80;73.20;;;;;;4990333;28;20116;-74
2021/11/18 12:00:23;;;;;;;11.98;3.13;;;13.80;72.70;;;;;;4992349;28;20287;-74
2021/11/18 12:03:12;;;;;;;9.82;3.10;;;13.70;72.90;;;;;;4993245;28;20026;-75
2021/11/18 12:05:56;;;;;;;9.48;2.92;;;13.80;74.10;;;;;;4989225;28;20478;-75
2021/11/18 12:08:35;;;;;;;6.50;2.70;;;13.70;73.30;;;;;;5012822;28;20088;-70
2021/11/18 12:11:12;;;;;;;6.35;2.60;;;13.70;73.00;;;;;;5009869;28;20049;-72
2021/11/18 12:14:20;;;;;;;7.53;2.30;;;13.70;72.20;;;;;;5008536;28;20022;-72
2021/11/18 12:16:47;;;;;;;9.88;3.00;;;13.70;73.10;;;;;;5002430;28;20049;-70
2021/11/18 12:19:33;;;;;;;9.60;2.35;;;13.70;71.90;;;;;;5010729;28;20026;-73
2021/11/18 12:22:00;;;;;;;6.40;1.90;;;13.70;72.00;;;;;;5010018;28;20051;-72
2021/11/18 12:24:46;;;;;;;7.63;2.40;;;13.70;71.70;;;;;;5010497;28;20089;-72
2021/11/18 12:27:15;;;;;;;10.43;2.50;;;13.60;71.40;;;;;;5007329;28;20026;-72
2021/11/18 12:29:48;;;;;;;7.70;2.63;;;13.60;71.10;;;;;;5013232;28;20029;-71
2021/11/18 12:32:28;;;;;;;8.75;2.25;;;13.60;71.60;;;;;;5013293;28;20026;-72
2021/11/18 12:34:56;;;;;;;6.38;2.13;;;13.60;71.90;;;;;;4996196;28;20395;-72
2021/11/18 12:37:37;;;;;;;12.85;1.90;;;13.60;71.70;;;;;;5010544;28;20065;-72
2021/11/18 12:40:33;;;;;;;7.10;2.05;;;13.60;71.90;;;;;;5009511;28;20018;-72
2021/11/18 12:43:20;;;;;;;7.85;1.83;;;13.60;72.20;;;;;;4993541;28;20490;-70
2021/11/18 12:46:15;;;;;;;4.22;1.48;;;13.60;71.80;;;;;;5009748;28;20033;-68
2021/11/18 12:48:54;;;;;;;8.75;2.13;;;13.70;72.20;;;;;;5009911;28;20092;-70
2021/11/18 12:51:20;;;;;;;8.70;2.30;;;13.70;71.30;;;;;;5008588;28;20022;-70
2021/11/18 12:54:08;;;;;;;8.40;2.45;;;13.70;70.90;;;;;;4992977;28;20014;-70
2021/11/18 12:56:48;;;;;;;11.48;2.60;;;13.60;70.50;;;;;;5008050;28;20030;-68
2021/11/18 12:59:44;;;;;;;6.82;2.00;;;13.60;71.20;;;;;;5010855;28;20117;-69
2021/11/18 13:02:12;;;;;;;6.70;1.70;;;13.60;71.70;;;;;;5013270;28;20026;-70
2021/11/18 13:04:51;;;;;;;10.35;2.00;;;13.60;70.40;;;;;;5009080;28;20407;-70